createdAt,value
2023-05-24T00:00:15.862Z,16.39
2023-05-24T00:02:44.457Z,16.37
2023-05-24T00:05:14.796Z,16.42
2023-05-24T00:07:43.529Z,16.54
2023-05-24T00:10:23.565Z,16.63
2023-05-24T00:12:51.944Z,16.71
2023-05-24T00:15:20.306Z,16.79
2023-05-24T00:17:48.790Z,16.84
2023-05-24T00:20:17.351Z,16.85
2023-05-24T00:22:46.207Z,16.84
2023-05-24T00:25:14.952Z,16.77
2023-05-24T00:27:44.755Z,16.74
2023-05-24T00:30:13.839Z,16.73
2023-05-24T00:32:42.363Z,16.65
2023-05-24T00:35:11.015Z,16.65
2023-05-24T00:37:40.214Z,16.65
2023-05-24T00:40:10.277Z,16.60
2023-05-24T00:42:38.866Z,16.50
2023-05-24T00:45:18.783Z,16.45
2023-05-24T00:47:47.871Z,16.42
2023-05-24T00:50:17.174Z,16.38
2023-05-24T00:52:50.928Z,16.38
2023-05-24T00:55:19.446Z,16.42
2023-05-24T00:57:47.903Z,16.43
2023-05-24T01:00:18.302Z,16.37
2023-05-24T01:02:55.185Z,16.33
2023-05-24T01:05:23.798Z,16.29
2023-05-24T01:08:00.112Z,16.28
2023-05-24T01:10:36.071Z,16.27
2023-05-24T01:13:13.820Z,16.24
2023-05-24T01:15:53.375Z,16.20
2023-05-24T01:18:30.437Z,16.14
2023-05-24T01:21:17.801Z,16.15
2023-05-24T01:23:54.069Z,16.17
2023-05-24T01:26:33.645Z,16.25
2023-05-24T01:29:04.876Z,16.33
2023-05-24T01:31:35.085Z,16.39
2023-05-24T01:34:03.495Z,16.42
2023-05-24T01:36:31.877Z,16.43
2023-05-24T01:39:00.328Z,16.42
2023-05-24T01:41:39.268Z,16.42
2023-05-24T01:44:17.609Z,16.43
2023-05-24T01:46:51.130Z,16.41
2023-05-24T01:49:23.387Z,16.36
2023-05-24T01:51:58.357Z,16.30
2023-05-24T01:54:29.554Z,16.25
2023-05-24T01:56:59.925Z,16.29
2023-05-24T01:59:31.306Z,16.34
2023-05-24T02:01:59.975Z,16.33
2023-05-24T02:04:28.432Z,16.33
2023-05-24T02:06:56.888Z,16.35
2023-05-24T02:09:25.415Z,16.33
2023-05-24T02:11:53.839Z,16.25
2023-05-24T02:14:22.525Z,16.16
2023-05-24T02:16:58.748Z,16.07
2023-05-24T02:19:27.473Z,16.08
2023-05-24T02:21:56.009Z,16.12
2023-05-24T02:24:24.448Z,16.13
2023-05-24T02:26:52.956Z,16.14
2023-05-24T02:29:21.695Z,16.06
2023-05-24T02:31:55.058Z,16.06
2023-05-24T02:34:25.273Z,16.12
2023-05-24T02:36:55.956Z,16.10
2023-05-24T02:39:24.408Z,16.04
2023-05-24T02:41:52.836Z,15.99
2023-05-24T02:44:21.451Z,15.98
2023-05-24T02:46:49.872Z,15.95
2023-05-24T02:49:18.285Z,15.96
2023-05-24T02:51:48.063Z,15.94
2023-05-24T02:54:17.689Z,15.89
2023-05-24T02:56:46.112Z,15.83
2023-05-24T02:59:14.768Z,15.78
2023-05-24T03:01:46.293Z,15.79
2023-05-24T03:04:14.688Z,15.70
2023-05-24T03:06:43.095Z,15.71
2023-05-24T03:09:13.009Z,15.75
2023-05-24T03:11:41.408Z,15.81
2023-05-24T03:14:11.305Z,15.86
2023-05-24T03:16:39.892Z,15.80
2023-05-24T03:19:10.509Z,15.89
2023-05-24T03:21:38.953Z,16.00
2023-05-24T03:24:09.586Z,16.05
2023-05-24T03:26:39.325Z,16.08
2023-05-24T03:29:10.480Z,16.03
2023-05-24T03:31:39.110Z,15.96
2023-05-24T03:34:11.177Z,15.88
2023-05-24T03:36:39.600Z,15.88
2023-05-24T03:39:09.078Z,15.85
2023-05-24T03:41:38.889Z,15.79
2023-05-24T03:44:07.480Z,15.71
2023-05-24T03:46:36.173Z,15.69
2023-05-24T03:49:04.581Z,15.68
2023-05-24T03:51:33.015Z,15.67
2023-05-24T03:54:01.379Z,15.66
2023-05-24T03:56:29.936Z,15.68
2023-05-24T03:59:03.858Z,15.72
2023-05-24T04:01:34.436Z,15.78
2023-05-24T04:04:03.680Z,15.79
2023-05-24T04:06:32.433Z,15.83
2023-05-24T04:09:02.692Z,15.87
2023-05-24T04:11:32.460Z,15.83
2023-05-24T04:14:02.175Z,15.84
2023-05-24T04:16:34.470Z,15.81
2023-05-24T04:19:04.200Z,15.75
2023-05-24T04:21:33.350Z,15.79
2023-05-24T04:24:03.456Z,15.84
2023-05-24T04:26:33.874Z,15.81
2023-05-24T04:29:03.656Z,15.88
2023-05-24T04:31:33.487Z,15.89
2023-05-24T04:34:02.162Z,15.81
2023-05-24T04:36:31.550Z,15.73
2023-05-24T04:39:04.865Z,15.67
2023-05-24T04:41:35.361Z,15.73
2023-05-24T04:44:05.287Z,15.74
2023-05-24T04:46:37.806Z,15.75
2023-05-24T04:49:08.441Z,15.73
2023-05-24T04:51:38.658Z,15.74
2023-05-24T04:54:11.627Z,15.75
2023-05-24T04:56:40.044Z,15.72
2023-05-24T04:59:10.502Z,15.75
2023-05-24T05:01:39.956Z,15.82
2023-05-24T05:04:08.594Z,15.78
2023-05-24T05:06:39.720Z,15.74
2023-05-24T05:09:10.233Z,15.75
2023-05-24T05:11:38.684Z,15.70
2023-05-24T05:14:10.949Z,15.72
2023-05-24T05:16:41.264Z,15.75
2023-05-24T05:19:10.052Z,15.78
2023-05-24T05:21:39.779Z,15.79
2023-05-24T05:24:08.227Z,15.85
2023-05-24T05:26:36.748Z,15.88
2023-05-24T05:29:05.248Z,15.93
2023-05-24T05:31:33.628Z,15.99
2023-05-24T05:34:03.408Z,16.01
2023-05-24T05:36:32.382Z,16.02
2023-05-24T05:39:00.760Z,15.94
2023-05-24T05:41:29.182Z,15.86
2023-05-24T05:43:57.585Z,15.87
2023-05-24T05:46:26.016Z,15.82
2023-05-24T05:48:54.423Z,15.76
2023-05-24T05:51:24.333Z,15.69
2023-05-24T05:53:52.789Z,15.61
2023-05-24T05:56:23.039Z,15.57
2023-05-24T05:58:51.495Z,15.63
2023-05-24T06:01:20.006Z,15.68
2023-05-24T06:03:48.491Z,15.71
2023-05-24T06:06:17.095Z,15.66
2023-05-24T06:08:46.893Z,15.62
2023-05-24T06:11:15.297Z,15.60
2023-05-24T06:13:43.849Z,15.55
2023-05-24T06:16:14.303Z,15.59
2023-05-24T06:18:50.161Z,15.65
2023-05-24T06:21:26.784Z,15.71
2023-05-24T06:23:58.206Z,15.75
2023-05-24T06:26:27.094Z,15.80
2023-05-24T06:28:55.999Z,15.86
2023-05-24T06:31:24.498Z,15.82
2023-05-24T06:34:03.724Z,15.79
2023-05-24T06:36:34.194Z,15.82
2023-05-24T06:39:04.826Z,15.87
2023-05-24T06:41:35.342Z,15.91
2023-05-24T06:44:03.758Z,15.79
2023-05-24T06:46:32.451Z,15.69
2023-05-24T06:49:01.716Z,15.64
2023-05-24T06:51:30.594Z,15.67
2023-05-24T06:53:59.251Z,15.70
2023-05-24T06:56:29.186Z,15.77
2023-05-24T06:58:57.777Z,15.86
2023-05-24T07:01:26.279Z,15.89
2023-05-24T07:03:54.719Z,15.85
2023-05-24T07:06:23.199Z,15.88
2023-05-24T07:08:57.672Z,15.93
2023-05-24T07:11:27.560Z,15.93
2023-05-24T07:13:58.371Z,15.95
2023-05-24T07:16:26.833Z,15.98
2023-05-24T07:18:56.632Z,16.03
2023-05-24T07:21:25.503Z,16.06
2023-05-24T07:23:53.961Z,16.06
2023-05-24T07:26:23.775Z,16.09
2023-05-24T07:28:52.172Z,16.12
2023-05-24T07:31:22.711Z,16.11
2023-05-24T07:33:51.137Z,16.09
2023-05-24T07:36:19.521Z,16.10
2023-05-24T07:38:47.950Z,16.11
2023-05-24T07:41:17.118Z,16.13
2023-05-24T07:43:45.719Z,16.12
2023-05-24T07:46:14.378Z,16.14
2023-05-24T07:48:44.207Z,16.09
2023-05-24T07:51:15.596Z,16.05
2023-05-24T07:53:44.077Z,16.07
2023-05-24T07:56:14.741Z,16.09
2023-05-24T07:58:46.802Z,16.06
2023-05-24T08:01:15.634Z,16.04
2023-05-24T08:03:46.278Z,16.02
2023-05-24T08:06:14.921Z,16.07
2023-05-24T08:08:43.494Z,16.11
2023-05-24T08:11:14.244Z,16.13
2023-05-24T08:13:42.729Z,16.16
2023-05-24T08:16:13.282Z,16.18
2023-05-24T08:18:41.967Z,16.20
2023-05-24T08:21:16.622Z,16.21
2023-05-24T08:23:45.092Z,16.23
2023-05-24T08:26:16.745Z,16.25
2023-05-24T08:28:45.232Z,16.30
2023-05-24T08:31:15.279Z,16.36
2023-05-24T08:33:44.284Z,16.39
2023-05-24T08:36:16.463Z,16.44
2023-05-24T08:38:44.875Z,16.50
2023-05-24T08:41:14.737Z,16.56
2023-05-24T08:43:44.804Z,16.60
2023-05-24T08:46:16.500Z,16.60
2023-05-24T08:48:48.092Z,16.54
2023-05-24T08:51:18.777Z,16.52
2023-05-24T08:53:50.207Z,16.54
2023-05-24T08:56:19.812Z,16.54
2023-05-24T08:58:48.331Z,16.52
2023-05-24T09:01:18.410Z,16.53
2023-05-24T09:03:48.625Z,16.54
2023-05-24T09:06:20.217Z,16.53
2023-05-24T09:08:52.472Z,16.50
2023-05-24T09:11:23.018Z,16.49
2023-05-24T09:13:57.010Z,16.50
2023-05-24T09:16:27.398Z,16.52
2023-05-24T09:18:55.845Z,16.56
2023-05-24T09:21:26.830Z,16.57
2023-05-24T09:23:55.573Z,16.59
2023-05-24T09:26:24.855Z,16.61
2023-05-24T09:28:56.652Z,16.64
2023-05-24T09:31:34.642Z,16.63
2023-05-24T09:34:03.242Z,16.64
2023-05-24T09:36:34.079Z,16.65
2023-05-24T09:39:10.118Z,16.65
2023-05-24T09:41:39.577Z,16.63
2023-05-24T09:44:07.999Z,16.63
2023-05-24T09:46:38.545Z,16.61
2023-05-24T09:49:08.450Z,16.46
2023-05-24T09:51:39.738Z,16.29
2023-05-24T09:54:09.773Z,16.12
2023-05-24T09:56:41.265Z,16.11
2023-05-24T09:59:10.336Z,16.09
2023-05-24T10:01:38.874Z,15.98
2023-05-24T10:04:09.997Z,15.80
2023-05-24T10:06:43.118Z,15.68
2023-05-24T10:09:14.160Z,15.65
2023-05-24T10:11:43.224Z,15.58
2023-05-24T10:14:11.876Z,15.52
2023-05-24T10:16:40.506Z,15.59
2023-05-24T10:19:08.940Z,15.49
2023-05-24T10:21:42.126Z,15.45
2023-05-24T10:24:14.666Z,15.46
2023-05-24T10:26:44.341Z,15.41
2023-05-24T10:29:23.153Z,15.43
2023-05-24T10:31:53.877Z,15.44
2023-05-24T10:34:22.691Z,15.35
2023-05-24T10:36:51.518Z,15.31
2023-05-24T10:39:23.903Z,15.29
2023-05-24T10:41:52.945Z,15.33
2023-05-24T10:44:22.591Z,15.28
2023-05-24T10:47:10.954Z,15.19
2023-05-24T10:49:40.497Z,15.12
2023-05-24T10:52:10.428Z,15.15
2023-05-24T10:54:49.627Z,15.22
2023-05-24T10:57:25.700Z,15.21
2023-05-24T10:59:54.170Z,15.12
2023-05-24T11:02:23.009Z,15.10
2023-05-24T11:04:51.622Z,15.13
2023-05-24T11:07:21.066Z,15.13
2023-05-24T11:09:56.895Z,15.11
2023-05-24T11:12:34.683Z,15.11
2023-05-24T11:15:04.123Z,15.19
2023-05-24T11:18:16.411Z,15.24
2023-05-24T11:20:46.949Z,15.17
2023-05-24T11:23:17.366Z,15.11
2023-05-24T11:25:48.753Z,15.11
2023-05-24T11:28:18.320Z,15.11
2023-05-24T11:30:48.942Z,15.04
2023-05-24T11:33:18.889Z,15.11
2023-05-24T11:35:47.949Z,15.17
2023-05-24T11:38:17.963Z,15.21
2023-05-24T11:40:49.173Z,15.33
2023-05-24T11:43:19.555Z,15.48
2023-05-24T11:45:51.190Z,15.52
2023-05-24T11:48:20.789Z,15.46
2023-05-24T11:50:50.514Z,15.45
2023-05-24T11:53:20.734Z,15.41
2023-05-24T11:55:51.546Z,15.32
2023-05-24T11:58:25.095Z,15.25
2023-05-24T12:00:53.848Z,15.14
2023-05-24T12:03:22.596Z,15.04
2023-05-24T12:05:51.390Z,14.98
2023-05-24T12:08:20.460Z,15.05
2023-05-24T12:10:51.773Z,15.10
2023-05-24T12:13:23.626Z,15.12
2023-05-24T12:15:55.818Z,15.15
2023-05-24T12:18:27.011Z,15.21
2023-05-24T12:20:55.875Z,15.21
2023-05-24T12:23:27.658Z,15.23
2023-05-24T12:26:01.176Z,15.29
2023-05-24T12:28:35.777Z,15.36
2023-05-24T12:31:05.240Z,15.41
2023-05-24T12:33:34.289Z,15.45
2023-05-24T12:36:02.736Z,15.46
2023-05-24T12:38:32.909Z,15.49
2023-05-24T12:43:34.130Z,15.68
2023-05-24T12:46:03.355Z,15.78
2023-05-24T12:48:32.168Z,15.88
2023-05-24T12:51:00.707Z,15.96
2023-05-24T12:53:29.146Z,15.93
2023-05-24T12:55:57.827Z,15.93
2023-05-24T12:58:28.282Z,15.98
2023-05-24T13:00:56.966Z,16.00
2023-05-24T13:03:25.528Z,15.99
2023-05-24T13:05:54.171Z,15.97
2023-05-24T13:08:22.833Z,15.90
2023-05-24T13:10:51.461Z,15.80
2023-05-24T13:13:20.043Z,15.75
2023-05-24T13:15:50.385Z,15.76
2023-05-24T13:18:19.480Z,15.82
2023-05-24T13:20:48.168Z,15.79
2023-05-24T13:23:18.274Z,15.67
2023-05-24T13:25:47.239Z,15.63
2023-05-24T13:28:16.191Z,15.55
2023-05-24T13:30:44.741Z,15.53
2023-05-24T13:33:16.157Z,15.52
2023-05-24T13:35:45.059Z,15.47
2023-05-24T13:38:14.010Z,15.45
2023-05-24T13:40:43.298Z,15.45
2023-05-24T13:43:12.093Z,15.45
2023-05-24T13:45:40.549Z,15.53
2023-05-24T13:48:09.080Z,15.56
2023-05-24T13:50:39.872Z,15.57
2023-05-24T13:53:08.342Z,15.55
2023-05-24T13:55:37.722Z,15.58
2023-05-24T13:58:06.798Z,15.66
2023-05-24T14:00:36.198Z,15.70
2023-05-24T14:03:06.020Z,15.73
2023-05-24T14:05:34.733Z,15.73
2023-05-24T14:08:14.522Z,15.73
2023-05-24T14:10:43.023Z,15.73
2023-05-24T14:13:34.290Z,15.80
2023-05-24T14:16:00.013Z,15.76
2023-05-24T14:18:29.040Z,15.76
2023-05-24T14:20:57.395Z,15.79
2023-05-24T14:23:27.576Z,15.67
2023-05-24T14:25:56.061Z,15.60
2023-05-24T14:28:24.860Z,15.53
2023-05-24T14:30:53.374Z,15.55
2023-05-24T14:33:22.036Z,15.58
2023-05-24T14:35:51.623Z,15.62
2023-05-24T14:38:20.313Z,15.63
2023-05-24T14:40:51.252Z,15.57
2023-05-24T14:43:19.760Z,15.59
2023-05-24T14:45:48.439Z,15.63
2023-05-24T14:48:17.628Z,15.54
2023-05-24T14:50:46.065Z,15.37
2023-05-24T14:53:14.617Z,15.32
2023-05-24T14:55:44.398Z,15.35
2023-05-24T14:58:14.665Z,15.48
2023-05-24T15:00:43.793Z,15.53
2023-05-24T15:03:14.542Z,15.53
2023-05-24T15:05:43.678Z,15.61
2023-05-24T15:08:13.830Z,15.74
2023-05-24T15:10:44.478Z,15.86
2023-05-24T15:13:14.869Z,15.91
2023-05-24T15:15:43.327Z,15.97
2023-05-24T15:18:11.910Z,15.89
2023-05-24T15:20:41.326Z,15.68
2023-05-24T15:23:10.842Z,15.61
2023-05-24T15:25:39.487Z,15.65
2023-05-24T15:28:08.007Z,15.69
2023-05-24T15:30:38.118Z,15.73
2023-05-24T15:33:08.102Z,15.82
2023-05-24T15:35:36.642Z,15.86
2023-05-24T15:38:05.261Z,15.89
2023-05-24T15:40:33.731Z,15.89
2023-05-24T15:43:08.995Z,15.91
2023-05-24T15:45:38.782Z,15.87
2023-05-24T15:48:07.327Z,15.84
2023-05-24T15:50:57.401Z,15.82
2023-05-24T15:53:25.424Z,15.76
2023-05-24T15:55:55.527Z,15.71
2023-05-24T15:58:23.900Z,15.64
2023-05-24T16:00:54.461Z,15.59
2023-05-24T16:03:22.881Z,15.54
2023-05-24T16:05:51.575Z,15.49
2023-05-24T16:08:21.577Z,15.48
2023-05-24T16:10:50.052Z,15.51
2023-05-24T16:13:21.601Z,15.52
2023-05-24T16:15:51.667Z,15.54
2023-05-24T16:18:23.008Z,15.60
2023-05-24T16:20:52.549Z,15.61
2023-05-24T16:23:23.174Z,15.62
2023-05-24T16:25:52.129Z,15.65
2023-05-24T16:28:24.144Z,15.65
2023-05-24T16:30:55.916Z,15.61
2023-05-24T16:33:26.493Z,15.61
2023-05-24T16:36:00.508Z,15.63
2023-05-24T16:38:30.575Z,15.66
2023-05-24T16:40:59.008Z,15.69
2023-05-24T16:43:27.521Z,15.72
2023-05-24T16:45:56.307Z,15.75
2023-05-24T16:48:28.804Z,15.78
2023-05-24T16:50:57.758Z,15.81
2023-05-24T16:53:27.155Z,15.82
2023-05-24T16:55:57.046Z,15.86
2023-05-24T16:58:28.171Z,15.89
2023-05-24T17:00:57.109Z,15.92
2023-05-24T17:03:29.522Z,15.91
2023-05-24T17:06:03.243Z,15.89
2023-05-24T17:08:34.393Z,15.91
2023-05-24T17:11:02.926Z,15.93
2023-05-24T17:13:31.514Z,15.93
2023-05-24T17:16:01.050Z,15.91
2023-05-24T17:18:31.157Z,15.86
2023-05-24T17:21:01.398Z,15.83
2023-05-24T17:23:31.815Z,15.84
2023-05-24T17:26:01.042Z,15.85
2023-05-24T17:28:29.944Z,15.84
2023-05-24T17:31:00.806Z,15.85
2023-05-24T17:33:32.083Z,15.87
2023-05-24T17:36:02.872Z,15.87
2023-05-24T17:38:33.149Z,15.85
2023-05-24T17:41:01.740Z,15.78
2023-05-24T17:43:32.724Z,15.75
2023-05-24T17:46:06.530Z,15.77
2023-05-24T17:48:38.080Z,15.77
2023-05-24T17:51:08.743Z,15.77
2023-05-24T17:53:38.239Z,15.77
2023-05-24T17:56:07.371Z,15.77
2023-05-24T17:58:37.358Z,15.79
2023-05-24T18:01:07.039Z,15.81
2023-05-24T18:03:38.570Z,15.81
2023-05-24T18:06:08.077Z,15.79
2023-05-24T18:08:38.470Z,15.80
2023-05-24T18:11:09.772Z,15.80
2023-05-24T18:13:38.881Z,15.77
2023-05-24T18:16:07.722Z,15.78
2023-05-24T18:18:38.730Z,15.77
2023-05-24T18:21:07.586Z,15.78
2023-05-24T18:23:38.043Z,15.74
2023-05-24T18:26:14.115Z,15.67
2023-05-24T18:28:42.876Z,15.64
2023-05-24T18:31:11.485Z,15.65
2023-05-24T18:33:49.306Z,15.61
2023-05-24T18:36:18.144Z,15.59
2023-05-24T18:38:47.453Z,15.58
2023-05-24T18:41:16.690Z,15.60
2023-05-24T18:43:45.202Z,15.60
2023-05-24T18:46:15.163Z,15.60
2023-05-24T18:48:43.989Z,15.60
2023-05-24T18:51:14.044Z,15.59
2023-05-24T18:53:42.449Z,15.56
2023-05-24T18:56:10.949Z,15.53
2023-05-24T18:58:39.967Z,15.51
2023-05-24T19:01:15.248Z,15.49
2023-05-24T19:03:43.734Z,15.41
2023-05-24T19:06:14.575Z,15.38
2023-05-24T19:08:43.094Z,15.36
2023-05-24T19:11:11.823Z,15.39
2023-05-24T19:13:40.988Z,15.33
2023-05-24T19:16:20.951Z,15.32
2023-05-24T19:18:49.439Z,15.31
2023-05-24T19:21:20.198Z,15.34
2023-05-24T19:23:48.643Z,15.36
2023-05-24T19:26:18.626Z,15.37
2023-05-24T19:28:50.494Z,15.33
2023-05-24T19:31:19.045Z,15.32
2023-05-24T19:33:59.965Z,15.30
2023-05-24T19:36:32.960Z,15.29
2023-05-24T19:39:01.859Z,15.28
2023-05-24T19:41:30.792Z,15.26
2023-05-24T19:43:59.440Z,15.22
2023-05-24T19:46:27.999Z,15.23
2023-05-24T19:48:56.422Z,15.21
2023-05-24T19:51:24.881Z,15.22
2023-05-24T19:53:54.628Z,15.24
2023-05-24T19:56:24.651Z,15.23
2023-05-24T19:58:53.256Z,15.25
2023-05-24T20:01:24.503Z,15.22
2023-05-24T20:03:53.088Z,15.18
2023-05-24T20:06:24.457Z,15.18
2023-05-24T20:08:55.718Z,15.18
2023-05-24T20:11:24.354Z,15.16
2023-05-24T20:13:53.182Z,15.15
2023-05-24T20:16:23.748Z,15.14
2023-05-24T20:18:52.669Z,15.14
2023-05-24T20:21:22.748Z,15.15
2023-05-24T20:23:57.747Z,15.14
2023-05-24T20:26:28.604Z,15.11
2023-05-24T20:28:57.055Z,15.15
2023-05-24T20:31:25.749Z,15.19
2023-05-24T20:33:54.216Z,15.20
2023-05-24T20:36:24.436Z,15.12
2023-05-24T20:38:52.839Z,15.02
2023-05-24T20:41:21.613Z,14.94
2023-05-24T20:43:51.566Z,14.94
2023-05-24T20:46:20.132Z,14.97
2023-05-24T20:48:48.732Z,14.97
2023-05-24T20:51:17.217Z,14.97
2023-05-24T20:53:45.944Z,14.98
2023-05-24T20:56:14.850Z,14.95
2023-05-24T20:58:43.944Z,14.96
2023-05-24T21:01:13.791Z,14.95
2023-05-24T21:03:42.327Z,14.96
2023-05-24T21:06:10.854Z,14.99
2023-05-24T21:08:39.378Z,14.99
2023-05-24T21:11:07.853Z,14.99
2023-05-24T21:13:36.262Z,14.98
2023-05-24T21:16:04.968Z,14.98
2023-05-24T21:18:34.722Z,14.98
2023-05-24T21:21:03.187Z,14.98
2023-05-24T21:23:31.851Z,14.94
2023-05-24T21:26:00.268Z,14.95
2023-05-24T21:28:28.708Z,14.94
2023-05-24T21:30:57.178Z,14.92
2023-05-24T21:33:30.379Z,14.91
2023-05-24T21:36:00.191Z,14.88
2023-05-24T21:38:28.550Z,14.85
2023-05-24T21:40:56.942Z,14.82
2023-05-24T21:43:25.428Z,14.76
2023-05-24T21:45:54.046Z,14.73
2023-05-24T21:48:23.743Z,14.75
2023-05-24T21:50:52.236Z,14.79
2023-05-24T21:53:23.084Z,14.84
2023-05-24T21:55:51.668Z,14.87
2023-05-24T21:58:20.099Z,14.89
2023-05-24T22:00:48.878Z,14.89
2023-05-24T22:03:17.406Z,14.89
2023-05-24T22:05:50.357Z,14.89
2023-05-24T22:08:18.839Z,14.89
2023-05-24T22:10:48.596Z,14.88
2023-05-24T22:13:22.922Z,14.90
2023-05-24T22:15:51.315Z,14.91
2023-05-24T22:18:21.111Z,14.90
2023-05-24T22:20:50.941Z,14.87
2023-05-24T22:23:19.478Z,14.83
2023-05-24T22:25:49.244Z,14.82
2023-05-24T22:28:20.141Z,14.79
2023-05-24T22:30:48.584Z,14.77
2023-05-24T22:33:18.919Z,14.75
2023-05-24T22:35:47.335Z,14.74
2023-05-24T22:38:15.745Z,14.70
2023-05-24T22:40:45.691Z,14.67
2023-05-24T22:43:15.615Z,14.67
2023-05-24T22:45:44.705Z,14.64
2023-05-24T22:48:13.420Z,14.63
2023-05-24T22:50:42.332Z,14.61
2023-05-24T22:53:10.740Z,14.58
2023-05-24T22:55:39.315Z,14.56
2023-05-24T22:58:07.719Z,14.57
2023-05-24T23:00:45.050Z,14.59
2023-05-24T23:03:16.062Z,14.60
2023-05-24T23:05:45.697Z,14.60
2023-05-24T23:08:14.296Z,14.57
2023-05-24T23:10:45.604Z,14.58
2023-05-24T23:13:14.567Z,14.57
2023-05-24T23:15:45.153Z,14.58
2023-05-24T23:18:16.388Z,14.58
2023-05-24T23:20:45.209Z,14.59
2023-05-24T23:23:13.654Z,14.55
2023-05-24T23:25:43.446Z,14.54
2023-05-24T23:28:12.101Z,14.55
2023-05-24T23:30:40.500Z,14.57
2023-05-24T23:33:10.684Z,14.58
2023-05-24T23:35:39.746Z,14.54
2023-05-24T23:38:08.242Z,14.54
2023-05-24T23:40:36.762Z,14.55
2023-05-24T23:43:05.378Z,14.56
2023-05-24T23:45:33.793Z,14.59
2023-05-24T23:48:02.910Z,14.54
2023-05-24T23:50:37.475Z,14.36
2023-05-24T23:53:11.413Z,14.32
2023-05-24T23:55:40.649Z,14.35
2023-05-24T23:58:09.056Z,14.33
